createdAt,value
2023-02-23T00:01:19.910Z,99329.06
2023-02-23T00:04:00.231Z,99310.03
2023-02-23T00:06:36.739Z,99327.91
2023-02-23T00:09:13.512Z,99325.94
2023-02-23T00:11:43.317Z,99325.28
2023-02-23T00:14:15.546Z,99317.56
2023-02-23T00:16:51.072Z,99325.91
2023-02-23T00:19:24.986Z,99327.34
2023-02-23T00:22:01.903Z,99323.47
2023-02-23T00:24:38.862Z,99318.13
2023-02-23T00:27:13.501Z,99317.13
2023-02-23T00:29:43.980Z,99317.44
2023-02-23T00:32:15.666Z,99316.72
2023-02-23T00:34:45.082Z,99320.66
2023-02-23T00:37:15.797Z,99321.34
2023-02-23T00:39:46.209Z,99307.31
2023-02-23T00:42:16.905Z,99314.31
2023-02-23T00:44:49.346Z,99313.59
2023-02-23T00:47:23.888Z,99312.31
2023-02-23T00:49:57.950Z,99317.22
2023-02-23T00:52:33.007Z,99314.09
2023-02-23T00:55:07.647Z,99317.34
2023-02-23T00:57:44.431Z,99318.19
2023-02-23T01:00:28.749Z,99315.13
2023-02-23T01:02:59.982Z,99313.25
2023-02-23T01:05:32.242Z,99315.53
2023-02-23T01:08:09.599Z,99301.41
2023-02-23T01:10:46.900Z,99309.63
2023-02-23T01:13:18.533Z,99297.03
2023-02-23T01:15:49.133Z,99309.09
2023-02-23T01:18:20.053Z,99299.63
2023-02-23T01:20:52.183Z,99301.81
2023-02-23T01:23:27.001Z,99305.19
2023-02-23T01:25:57.421Z,99301.53
2023-02-23T01:28:33.551Z,99302.19
2023-02-23T01:31:03.033Z,99302.59
2023-02-23T01:33:34.304Z,99292.09
2023-02-23T01:36:03.848Z,99288.25
2023-02-23T01:38:37.315Z,99293.31
2023-02-23T01:41:11.439Z,99290.59
2023-02-23T01:44:07.493Z,99291.25
2023-02-23T01:46:40.114Z,99292.25
2023-02-23T01:49:11.971Z,99286.66
2023-02-23T01:51:44.417Z,99279.34
2023-02-23T01:54:20.477Z,99281.88
2023-02-23T01:56:58.424Z,99284.13
2023-02-23T01:59:35.291Z,99278.28
2023-02-23T02:02:09.104Z,99268.84
2023-02-23T02:04:52.435Z,99273.44
2023-02-23T02:07:26.298Z,99274.44
2023-02-23T02:10:15.309Z,99276.38
2023-02-23T02:12:54.300Z,99274.44
2023-02-23T02:15:27.687Z,99273.44
2023-02-23T02:18:03.440Z,99272.47
2023-02-23T02:20:55.134Z,99274.88
2023-02-23T02:24:09.563Z,99271.53
2023-02-23T02:27:03.298Z,99271.66
2023-02-23T02:30:14.091Z,99268.13
2023-02-23T02:33:32.206Z,99272.88
2023-02-23T02:36:27.122Z,99264.78
2023-02-23T02:39:35.980Z,99269.94
2023-02-23T02:42:15.168Z,99259.38
2023-02-23T02:44:59.371Z,99261.06
2023-02-23T02:47:33.120Z,99268.22
2023-02-23T02:50:18.045Z,99258.94
2023-02-23T02:52:54.887Z,99273.28
2023-02-23T02:55:42.387Z,99265.19
2023-02-23T02:58:16.217Z,99271.66
2023-02-23T03:01:07.292Z,99278.09
2023-02-23T03:03:57.700Z,99276.72
2023-02-23T03:06:49.741Z,99284.06
2023-02-23T03:09:46.917Z,99278.88
2023-02-23T03:12:53.156Z,99279.50
2023-02-23T03:16:19.159Z,99288.88
2023-02-23T03:19:17.145Z,99279.50
2023-02-23T03:22:08.234Z,99288.56
2023-02-23T03:25:05.677Z,99287.25
2023-02-23T03:28:04.171Z,99287.59
2023-02-23T03:31:01.247Z,99293.94
2023-02-23T03:33:58.535Z,99289.88
2023-02-23T03:36:47.201Z,99292.72
2023-02-23T03:39:43.180Z,99288.25
2023-02-23T03:42:37.998Z,99291.78
2023-02-23T03:45:30.235Z,99296.84
2023-02-23T03:48:19.909Z,99301.03
2023-02-23T03:51:13.599Z,99303.78
2023-02-23T03:54:07.892Z,99296.81
2023-02-23T03:56:59.215Z,99292.50
2023-02-23T03:59:50.236Z,99296.81
2023-02-23T04:02:42.420Z,99300.47
2023-02-23T04:05:34.206Z,99313.13
2023-02-23T04:08:28.478Z,99313.00
2023-02-23T04:11:25.230Z,99303.34
2023-02-23T04:14:02.792Z,99306.50
2023-02-23T04:16:32.629Z,99305.84
2023-02-23T04:19:16.201Z,99309.88
2023-02-23T04:21:44.571Z,99308.88
2023-02-23T04:24:21.055Z,99309.53
2023-02-23T04:26:52.631Z,99307.13
2023-02-23T04:29:30.611Z,99303.34
2023-02-23T04:32:01.348Z,99310.53
2023-02-23T04:34:32.590Z,99310.63
2023-02-23T04:37:00.913Z,99306.19
2023-02-23T04:39:30.508Z,99314.53
2023-02-23T04:42:01.547Z,99320.72
2023-02-23T04:44:38.255Z,99310.53
2023-02-23T04:47:07.566Z,99315.31
2023-02-23T04:49:53.695Z,99316.44
2023-02-23T04:52:23.537Z,99311.78
2023-02-23T04:54:52.971Z,99309.63
2023-02-23T04:57:34.049Z,99320.97
2023-02-23T05:00:05.922Z,99308.97
2023-02-23T05:02:34.422Z,99315.84
2023-02-23T05:05:05.694Z,99322.47
2023-02-23T05:07:36.661Z,99309.16
2023-02-23T05:10:11.058Z,99307.47
2023-02-23T05:12:42.962Z,99306.72
2023-02-23T05:15:12.773Z,99308.84
2023-02-23T05:17:49.871Z,99304.91
2023-02-23T05:20:29.241Z,99308.66
2023-02-23T05:23:00.595Z,99310.75
2023-02-23T05:25:33.676Z,99314.19
2023-02-23T05:28:03.490Z,99298.63
2023-02-23T05:30:36.777Z,99311.19
2023-02-23T05:33:06.965Z,99307.97
2023-02-23T05:35:41.144Z,99313.72
2023-02-23T05:38:14.932Z,99315.22
2023-02-23T05:40:44.515Z,99314.69
2023-02-23T05:43:13.004Z,99318.38
2023-02-23T05:45:52.499Z,99302.06
2023-02-23T05:48:24.124Z,99317.09
2023-02-23T05:51:05.429Z,99324.41
2023-02-23T05:53:36.761Z,99324.91
2023-02-23T05:56:09.106Z,99330.69
2023-02-23T05:58:38.056Z,99336.41
2023-02-23T06:01:07.310Z,99331.28
2023-02-23T06:03:55.762Z,99342.28
2023-02-23T06:06:28.602Z,99335.66
2023-02-23T06:08:59.414Z,99341.56
2023-02-23T06:11:33.056Z,99341.69
2023-02-23T06:14:02.635Z,99343.25
2023-02-23T06:16:33.817Z,99348.81
2023-02-23T06:19:05.732Z,99351.50
2023-02-23T06:21:38.195Z,99354.44
2023-02-23T06:24:15.494Z,99358.78
2023-02-23T06:26:47.371Z,99363.47
2023-02-23T06:29:17.151Z,99363.75
2023-02-23T06:31:47.746Z,99366.19
2023-02-23T06:34:21.586Z,99366.41
2023-02-23T06:36:54.182Z,99367.66
2023-02-23T06:39:28.879Z,99370.56
2023-02-23T06:41:59.357Z,99375.50
2023-02-23T06:44:31.098Z,99375.75
2023-02-23T06:47:09.082Z,99366.50
2023-02-23T06:49:44.616Z,99377.16
2023-02-23T06:52:15.064Z,99367.97
2023-02-23T06:54:43.426Z,99375.13
2023-02-23T06:57:11.799Z,99381.72
2023-02-23T06:59:43.583Z,99378.16
2023-02-23T07:02:19.936Z,99374.91
2023-02-23T07:04:49.328Z,99374.16
2023-02-23T07:07:27.242Z,99384.25
2023-02-23T07:09:57.610Z,99388.91
2023-02-23T07:12:28.432Z,99382.94
2023-02-23T07:15:03.163Z,99387.22
2023-02-23T07:17:33.776Z,99385.88
2023-02-23T07:20:10.251Z,99392.09
2023-02-23T07:22:42.716Z,99386.56
2023-02-23T07:25:16.743Z,99389.06
2023-02-23T07:27:48.652Z,99389.78
2023-02-23T07:30:19.840Z,99400.09
2023-02-23T07:32:49.034Z,99390.53
2023-02-23T07:35:19.884Z,99396.19
2023-02-23T07:38:00.165Z,99394.41
2023-02-23T07:40:29.634Z,99395.84
2023-02-23T07:43:08.071Z,99395.63
2023-02-23T07:45:36.583Z,99399.69
2023-02-23T07:48:16.437Z,99398.56
2023-02-23T07:50:50.064Z,99398.91
2023-02-23T07:53:22.380Z,99400.47
2023-02-23T07:55:57.409Z,99411.44
2023-02-23T07:58:26.759Z,99395.53
2023-02-23T08:00:57.041Z,99398.00
2023-02-23T08:03:26.312Z,99406.66
2023-02-23T08:05:59.883Z,99408.13
2023-02-23T08:08:41.508Z,99399.38
2023-02-23T08:11:25.048Z,99413.94
2023-02-23T08:14:02.186Z,99400.84
2023-02-23T08:16:42.779Z,99414.25
2023-02-23T08:19:14.799Z,99406.88
2023-02-23T08:21:46.599Z,99412.28
2023-02-23T08:24:24.146Z,99423.66
2023-02-23T08:26:55.933Z,99412.00
2023-02-23T08:29:24.668Z,99409.66
2023-02-23T08:31:56.332Z,99416.38
2023-02-23T08:34:26.548Z,99417.22
2023-02-23T08:36:54.614Z,99415.81
2023-02-23T08:39:28.883Z,99411.47
2023-02-23T08:42:00.570Z,99419.03
2023-02-23T08:44:39.362Z,99411.47
2023-02-23T08:47:16.537Z,99421.56
2023-02-23T08:49:48.597Z,99421.41
2023-02-23T08:52:18.296Z,99423.66
2023-02-23T08:54:50.997Z,99416.25
2023-02-23T08:57:28.019Z,99420.97
2023-02-23T08:59:58.413Z,99427.59
2023-02-23T09:02:32.760Z,99421.28
2023-02-23T09:05:01.235Z,99416.94
2023-02-23T09:07:32.772Z,99422.56
2023-02-23T09:10:02.872Z,99426.47
2023-02-23T09:12:34.548Z,99422.25
2023-02-23T09:15:06.321Z,99417.22
2023-02-23T09:17:45.014Z,99420.16
2023-02-23T09:20:19.906Z,99431.91
2023-02-23T09:22:50.811Z,99425.19
2023-02-23T09:25:26.016Z,99425.63
2023-02-23T09:27:58.405Z,99426.63
2023-02-23T09:30:28.741Z,99432.38
2023-02-23T09:32:58.795Z,99431.94
2023-02-23T09:35:30.096Z,99424.22
2023-02-23T09:38:06.199Z,99428.81
2023-02-23T09:40:49.119Z,99429.84
2023-02-23T09:43:27.319Z,99432.97
2023-02-23T09:46:02.038Z,99430.84
2023-02-23T09:48:41.648Z,99428.25
2023-02-23T09:51:23.699Z,99424.81
2023-02-23T09:54:00.085Z,99422.13
2023-02-23T09:56:40.298Z,99424.53
2023-02-23T09:59:20.776Z,99426.25
2023-02-23T10:02:23.033Z,99420.97
2023-02-23T10:04:57.389Z,99423.25
2023-02-23T10:07:30.636Z,99410.69
2023-02-23T10:10:12.000Z,99418.19
2023-02-23T10:12:48.394Z,99422.22
2023-02-23T10:15:32.400Z,99416.88
2023-02-23T10:18:06.722Z,99413.69
2023-02-23T10:20:44.083Z,99419.97
2023-02-23T10:23:16.788Z,99419.31
2023-02-23T10:25:49.961Z,99412.50
2023-02-23T10:28:31.118Z,99413.00
2023-02-23T10:31:01.896Z,99416.09
2023-02-23T10:33:45.215Z,99412.25
2023-02-23T10:36:23.217Z,99405.44
2023-02-23T10:38:54.093Z,99403.53
2023-02-23T10:41:31.228Z,99401.91
2023-02-23T10:44:15.653Z,99401.91
2023-02-23T10:46:47.936Z,99400.28
2023-02-23T10:49:24.840Z,99396.28
2023-02-23T10:51:58.195Z,99394.94
2023-02-23T10:54:45.794Z,99391.34
2023-02-23T10:57:20.501Z,99387.38
2023-02-23T11:00:11.862Z,99385.25
2023-02-23T11:02:42.421Z,99376.63
2023-02-23T11:05:32.397Z,99378.22
2023-02-23T11:08:25.155Z,99382.59
2023-02-23T11:11:17.164Z,99363.06
2023-02-23T11:13:48.811Z,99367.41
2023-02-23T11:16:23.512Z,99378.00
2023-02-23T11:18:58.151Z,99369.97
2023-02-23T11:21:35.723Z,99359.22
2023-02-23T11:24:16.515Z,99356.56
2023-02-23T11:26:54.935Z,99354.94
2023-02-23T11:29:27.326Z,99351.78
2023-02-23T11:32:10.180Z,99350.44
2023-02-23T11:34:53.713Z,99351.72
2023-02-23T11:37:23.760Z,99347.22
2023-02-23T11:39:53.696Z,99345.56
2023-02-23T11:42:33.510Z,99337.19
2023-02-23T11:45:04.868Z,99338.72
2023-02-23T11:47:49.952Z,99335.47
2023-02-23T11:50:25.425Z,99325.94
2023-02-23T11:53:01.769Z,99340.16
2023-02-23T11:55:41.274Z,99334.34
2023-02-23T11:58:27.021Z,99325.50
2023-02-23T12:00:57.825Z,99321.81
2023-02-23T12:03:44.548Z,99314.44
2023-02-23T12:06:23.103Z,99318.16
2023-02-23T12:08:55.743Z,99322.16
2023-02-23T12:11:29.853Z,99321.31
2023-02-23T12:14:06.799Z,99319.44
2023-02-23T12:16:45.414Z,99319.31
2023-02-23T12:19:31.956Z,99319.28
2023-02-23T12:22:09.462Z,99314.75
2023-02-23T12:24:51.447Z,99318.44
2023-02-23T12:27:24.342Z,99324.31
2023-02-23T12:30:08.442Z,99306.22
2023-02-23T12:32:51.375Z,99312.75
2023-02-23T12:35:29.550Z,99298.69
2023-02-23T12:38:04.239Z,99305.22
2023-02-23T12:40:44.337Z,99298.72
2023-02-23T12:43:24.890Z,99301.38
2023-02-23T12:45:56.207Z,99289.47
2023-02-23T12:48:34.811Z,99284.25
2023-02-23T12:51:14.285Z,99274.53
2023-02-23T12:53:55.442Z,99278.69
2023-02-23T12:56:39.579Z,99273.22
2023-02-23T12:59:19.194Z,99268.31
2023-02-23T13:01:58.326Z,99272.19
2023-02-23T13:05:13.302Z,99268.50
2023-02-23T13:07:52.769Z,99265.94
2023-02-23T13:10:33.392Z,99264.50
2023-02-23T13:13:12.837Z,99258.25
2023-02-23T13:15:52.988Z,99261.50
2023-02-23T13:18:27.724Z,99262.47
2023-02-23T13:21:07.654Z,99257.81
2023-02-23T13:23:42.966Z,99268.03
2023-02-23T13:26:24.938Z,99261.69
2023-02-23T13:28:58.845Z,99264.00
2023-02-23T13:31:30.662Z,99258.31
2023-02-23T13:34:02.160Z,99267.56
2023-02-23T13:36:41.333Z,99267.72
2023-02-23T13:39:39.729Z,99259.19
2023-02-23T13:42:38.316Z,99265.19
2023-02-23T13:45:48.659Z,99255.50
2023-02-23T13:48:47.330Z,99252.50
2023-02-23T13:51:32.239Z,99255.00
2023-02-23T13:54:02.887Z,99254.50
2023-02-23T13:56:44.100Z,99254.81
2023-02-23T13:59:21.970Z,99249.16
2023-02-23T14:01:54.304Z,99257.34
2023-02-23T14:04:33.570Z,99249.97
2023-02-23T14:07:06.893Z,99249.28
2023-02-23T14:09:40.142Z,99259.00
2023-02-23T14:12:31.806Z,99252.50
2023-02-23T14:15:45.340Z,99250.13
2023-02-23T14:18:32.952Z,99248.97
2023-02-23T14:21:09.734Z,99236.22
2023-02-23T14:24:18.780Z,99231.88
2023-02-23T14:27:40.370Z,99241.88
2023-02-23T14:30:50.039Z,99240.03
2023-02-23T14:33:50.400Z,99238.19
2023-02-23T14:36:46.908Z,99239.66
2023-02-23T14:39:29.137Z,99234.31
2023-02-23T14:42:03.104Z,99233.63
2023-02-23T14:44:36.715Z,99227.91
2023-02-23T14:47:15.943Z,99227.44
2023-02-23T14:49:50.276Z,99230.47
2023-02-23T14:52:27.972Z,99231.00
2023-02-23T14:55:19.805Z,99224.31
2023-02-23T14:57:56.480Z,99225.97
2023-02-23T15:00:28.254Z,99219.09
2023-02-23T15:03:09.273Z,99219.06
2023-02-23T15:05:53.724Z,99225.13
2023-02-23T15:08:25.688Z,99222.97
2023-02-23T15:11:05.539Z,99216.78
2023-02-23T15:16:09.058Z,99211.25
2023-02-23T15:19:31.973Z,99211.25
2023-02-23T15:22:28.891Z,99212.94
2023-02-23T15:25:01.673Z,99205.75
2023-02-23T15:27:45.196Z,99210.28
2023-02-23T15:30:52.506Z,99208.28
2023-02-23T15:33:28.883Z,99215.81
2023-02-23T15:36:14.525Z,99208.97
2023-02-23T15:38:53.020Z,99210.13
2023-02-23T15:41:39.507Z,99208.94
2023-02-23T15:44:18.942Z,99206.25
2023-02-23T15:46:52.976Z,99207.44
2023-02-23T15:49:24.785Z,99203.25
2023-02-23T15:52:05.646Z,99198.56
2023-02-23T15:55:00.780Z,99196.72
2023-02-23T15:57:33.093Z,99198.53
2023-02-23T16:00:14.387Z,99195.72
2023-02-23T16:02:52.206Z,99195.34
2023-02-23T16:05:25.710Z,99194.53
2023-02-23T16:08:07.089Z,99189.50
2023-02-23T16:10:51.305Z,99197.16
2023-02-23T16:13:25.055Z,99196.31
2023-02-23T16:15:56.415Z,99200.16
2023-02-23T16:18:38.549Z,99193.66
2023-02-23T16:21:23.529Z,99187.44
2023-02-23T16:23:56.579Z,99197.66
2023-02-23T16:26:52.982Z,99191.81
2023-02-23T16:29:31.318Z,99186.97
2023-02-23T16:32:03.541Z,99190.47
2023-02-23T16:34:37.648Z,99196.16
2023-02-23T16:37:20.306Z,99193.78
2023-02-23T16:40:02.571Z,99198.16
2023-02-23T16:42:41.254Z,99192.75
2023-02-23T16:45:21.643Z,99195.28
2023-02-23T16:48:02.772Z,99191.53
2023-02-23T16:50:41.816Z,99202.59
2023-02-23T16:53:24.377Z,99195.59
2023-02-23T16:56:12.582Z,99197.63
2023-02-23T16:58:52.116Z,99195.91
2023-02-23T17:01:26.350Z,99195.44
2023-02-23T17:03:59.679Z,99198.75
2023-02-23T17:06:31.236Z,99206.09
2023-02-23T17:09:10.038Z,99204.44
2023-02-23T17:11:41.068Z,99205.19
2023-02-23T17:14:27.547Z,99204.59
2023-02-23T17:17:10.893Z,99208.38
2023-02-23T17:19:53.888Z,99202.34
2023-02-23T17:22:33.367Z,99212.22
2023-02-23T17:25:03.285Z,99203.41
2023-02-23T17:28:04.613Z,99206.34
2023-02-23T17:30:46.108Z,99209.19
2023-02-23T17:33:19.492Z,99208.53
2023-02-23T17:35:56.069Z,99202.28
2023-02-23T17:38:37.130Z,99198.78
2023-02-23T17:41:12.942Z,99207.00
2023-02-23T17:43:45.877Z,99202.25
2023-02-23T17:46:18.387Z,99199.78
2023-02-23T17:48:50.703Z,99204.41
2023-02-23T17:51:25.410Z,99205.66
2023-02-23T17:54:16.617Z,99200.63
2023-02-23T17:56:55.128Z,99206.75
2023-02-23T17:59:29.935Z,99201.16
2023-02-23T18:02:22.919Z,99205.91
2023-02-23T18:04:54.937Z,99205.50
2023-02-23T18:07:30.345Z,99198.59
2023-02-23T18:10:05.636Z,99199.97
2023-02-23T18:12:53.078Z,99190.63
2023-02-23T18:15:32.193Z,99194.69
2023-02-23T18:18:30.486Z,99195.97
2023-02-23T18:21:03.911Z,99189.94
2023-02-23T18:23:36.690Z,99185.44
2023-02-23T18:26:14.444Z,99190.63
2023-02-23T18:28:47.133Z,99188.13
2023-02-23T18:31:24.003Z,99192.31
2023-02-23T18:34:25.216Z,99195.44
2023-02-23T18:36:59.127Z,99190.06
2023-02-23T18:39:32.012Z,99193.69
2023-02-23T18:42:03.256Z,99190.47
2023-02-23T18:44:44.693Z,99191.59
2023-02-23T18:47:18.831Z,99177.72
2023-02-23T18:49:52.917Z,99190.00
2023-02-23T18:52:34.708Z,99192.34
2023-02-23T18:55:11.502Z,99187.41
2023-02-23T18:57:57.296Z,99186.69
2023-02-23T19:00:35.436Z,99189.97
2023-02-23T19:03:22.289Z,99182.09
2023-02-23T19:05:59.836Z,99187.59
2023-02-23T19:08:42.952Z,99185.34
2023-02-23T19:11:24.903Z,99178.56
2023-02-23T19:14:01.579Z,99187.00
2023-02-23T19:16:47.160Z,99184.75
2023-02-23T19:19:27.557Z,99186.44
2023-02-23T19:22:25.195Z,99195.84
2023-02-23T19:25:04.103Z,99189.56
2023-02-23T19:27:43.898Z,99190.94
2023-02-23T19:30:24.200Z,99193.13
2023-02-23T19:33:03.039Z,99193.56
2023-02-23T19:35:38.987Z,99190.66
2023-02-23T19:38:37.590Z,99190.25
2023-02-23T19:41:17.276Z,99195.91
2023-02-23T19:43:47.723Z,99192.19
2023-02-23T19:46:25.798Z,99187.41
2023-02-23T19:49:01.063Z,99191.97
2023-02-23T19:51:40.426Z,99192.03
2023-02-23T19:54:14.859Z,99189.78
2023-02-23T19:56:45.901Z,99185.47
2023-02-23T19:59:17.504Z,99183.06
2023-02-23T20:01:54.670Z,99192.28
2023-02-23T20:04:29.129Z,99182.44
2023-02-23T20:07:13.869Z,99177.59
2023-02-23T20:10:11.182Z,99183.00
2023-02-23T20:12:59.794Z,99184.44
2023-02-23T20:15:45.761Z,99171.97
2023-02-23T20:18:19.064Z,99177.19
2023-02-23T20:21:02.842Z,99173.97
2023-02-23T20:23:39.948Z,99171.06
2023-02-23T20:26:31.318Z,99172.69
2023-02-23T20:29:13.638Z,99171.06
2023-02-23T20:31:53.528Z,99166.63
2023-02-23T20:37:32.120Z,99167.84
2023-02-23T20:40:11.153Z,99162.50
2023-02-23T20:42:45.804Z,99166.63
2023-02-23T20:45:30.769Z,99164.84
2023-02-23T20:48:16.576Z,99150.75
2023-02-23T20:50:59.204Z,99147.16
2023-02-23T20:53:30.941Z,99149.28
2023-02-23T20:56:15.339Z,99145.28
2023-02-23T21:01:40.547Z,99141.44
2023-02-23T21:04:13.406Z,99138.44
2023-02-23T21:06:46.155Z,99133.56
2023-02-23T21:09:29.905Z,99140.25
2023-02-23T21:12:00.914Z,99135.44
2023-02-23T21:14:35.339Z,99132.84
2023-02-23T21:17:10.558Z,99127.66
2023-02-23T21:19:50.079Z,99134.69
2023-02-23T21:22:31.778Z,99122.13
2023-02-23T21:25:14.432Z,99119.81
2023-02-23T21:27:50.670Z,99116.91
2023-02-23T21:30:35.134Z,99117.47
2023-02-23T21:33:17.463Z,99105.34
2023-02-23T21:35:47.595Z,99112.06
2023-02-23T21:38:17.085Z,99103.81
2023-02-23T21:40:48.751Z,99109.44
2023-02-23T21:43:29.608Z,99107.06
2023-02-23T21:46:19.960Z,99114.31
2023-02-23T21:48:57.618Z,99105.75
2023-02-23T21:51:36.686Z,99111.66
2023-02-23T21:54:14.028Z,99110.84
2023-02-23T21:56:43.718Z,99116.63
2023-02-23T21:59:16.617Z,99121.06
2023-02-23T22:01:53.766Z,99112.16
2023-02-23T22:04:25.091Z,99109.41
2023-02-23T22:06:55.999Z,99100.94
2023-02-23T22:09:27.694Z,99101.25
2023-02-23T22:12:01.173Z,99099.09
2023-02-23T22:14:29.533Z,99103.81
2023-02-23T22:17:04.003Z,99107.19
2023-02-23T22:19:35.914Z,99100.13
2023-02-23T22:22:04.633Z,99099.78
2023-02-23T22:24:34.503Z,99095.00
2023-02-23T22:27:04.680Z,99098.13
2023-02-23T22:29:38.669Z,99097.34
2023-02-23T22:32:13.822Z,99089.56
2023-02-23T22:34:43.781Z,99086.22
2023-02-23T22:37:13.980Z,99078.81
2023-02-23T22:39:51.084Z,99085.13
2023-02-23T22:42:22.178Z,99078.47
2023-02-23T22:44:59.933Z,99083.09
2023-02-23T22:47:34.944Z,99086.75
2023-02-23T22:50:07.023Z,99087.38
2023-02-23T22:52:41.175Z,99083.84
2023-02-23T22:55:24.386Z,99078.63
2023-02-23T22:57:55.208Z,99078.31
2023-02-23T23:00:27.922Z,99074.19
2023-02-23T23:03:12.351Z,99071.44
2023-02-23T23:05:44.045Z,99077.19
2023-02-23T23:08:18.067Z,99073.31
2023-02-23T23:10:50.804Z,99070.53
2023-02-23T23:13:23.098Z,99068.63
2023-02-23T23:15:55.236Z,99070.66
2023-02-23T23:18:42.464Z,99062.84
2023-02-23T23:21:17.466Z,99071.31
2023-02-23T23:23:48.761Z,99057.28
2023-02-23T23:26:20.226Z,99066.09
2023-02-23T23:28:50.931Z,99060.63
2023-02-23T23:31:25.637Z,99058.59
2023-02-23T23:34:00.114Z,99052.94
2023-02-23T23:36:33.234Z,99056.91
2023-02-23T23:39:10.309Z,99055.09
2023-02-23T23:41:49.013Z,99034.09
2023-02-23T23:44:18.132Z,99047.63
2023-02-23T23:46:50.800Z,99046.69
2023-02-23T23:49:26.113Z,99048.78
2023-02-23T23:51:57.936Z,99038.50
2023-02-23T23:54:38.821Z,99040.25
2023-02-23T23:57:13.893Z,99033.91
2023-02-23T23:59:55.822Z,99039.94
